Portada
METAR-TAF:

METAR-TAF

Aeropuertos :

Helipuerto de Algeciras

Algeciras, España

latitud: 36-07-44N, longitud: 05-26-28W, altitud: 30 m

Observación

El informe se hizo hace 34 minutos, a las 18:00 UTC
Viento 12 kt del este, variando entre este-noreste y este-sureste
Temperatura 19°C
Humedad 78%
Presión 1020 hPa
Visibilidad 10 km o más
Escasas nubes a una altura de 1600 ft

METAR: LEAG 261800Z AUTO 09012KT 060V120 9999 FEW016 19/15 Q1020

Hora: 20:34 (18:34 UTC)

Pronóstico

El informe se hizo hace 4 horas y 34 minutos, a las 14:00 UTC
Pronóstico válido del 26 a las 15 UTC al 27 a las 15 UTC
Viento 10 kt del este-noreste
Visibilidad 10 km o más
Escasas nubes a una altura de 2000 ft
Probabilidad 40% :
Temporalmente
del 26 a las 22 UTC al 27 a las 08 UTC
Cielo nuboso a una altura de 1000 ft

TAF: LEAG 261400Z 2615/2715 07010KT 9999 FEW020 TX21/2713Z TN17/2705Z PROB40 TEMPO 2622/2708 BKN010

Observaciones y pronósticos meteorológicos de más de 4000 aeropuertos (mensajes METAR y TAF).

Los puntos amarillos y rojos representan las estaciones disponibles.

Ponga el ratón en el punto deseado para ver el nombre de la estación.

Haga clic para ver las observaciones y los pronósticos meteorológicos.

Para cambiar el mapa : haga clic en los botones verdes con una cruz de color negro para hacer un zoom, en el botón verde con un guión para alejar o en las flechas verdes para mapas adyacentes.


METAR-TAF: